createdAt,value
2022-08-23T05:38:00.911Z,100.00
2022-08-23T05:40:28.727Z,100.00
2022-08-23T05:43:05.111Z,100.00
2022-08-23T05:45:31.629Z,100.00
2022-08-23T05:47:58.865Z,100.00
2022-08-23T05:50:36.327Z,100.00
2022-08-23T05:53:03.187Z,100.00
2022-08-23T05:55:34.600Z,100.00
2022-08-23T05:58:23.378Z,100.00
2022-08-23T06:00:50.243Z,100.00
2022-08-23T06:03:17.011Z,100.00
2022-08-23T06:05:46.341Z,100.00
2022-08-23T06:08:13.224Z,100.00
2022-08-23T06:10:42.316Z,100.00
2022-08-23T06:13:25.914Z,100.00
2022-08-23T06:15:52.577Z,100.00
2022-08-23T06:18:20.836Z,100.00
2022-08-23T06:20:48.015Z,100.00
2022-08-23T06:23:20.271Z,100.00
2022-08-23T06:25:46.794Z,100.00
2022-08-23T06:28:15.110Z,100.00
2022-08-23T06:30:42.314Z,100.00
2022-08-23T06:33:17.505Z,100.00
2022-08-23T06:35:47.353Z,100.00
2022-08-23T06:38:24.784Z,100.00
2022-08-23T06:41:08.345Z,100.00
2022-08-23T06:44:00.163Z,100.00
2022-08-23T06:46:49.992Z,100.00
2022-08-23T06:49:16.732Z,100.00
2022-08-23T06:51:44.705Z,100.00
2022-08-23T06:54:19.266Z,100.00
2022-08-23T06:57:00.300Z,100.00
2022-08-23T06:59:40.688Z,100.00
2022-08-23T07:02:30.417Z,100.00
2022-08-23T07:04:56.941Z,100.00
2022-08-23T07:07:37.438Z,100.00
2022-08-23T07:10:11.161Z,100.00
2022-08-23T07:12:39.290Z,100.00
2022-08-23T07:15:06.129Z,100.00
2022-08-23T07:17:32.652Z,100.00
2022-08-23T07:19:59.355Z,100.00
2022-08-23T07:22:25.950Z,100.00
2022-08-23T07:24:52.602Z,100.00
2022-08-23T07:27:21.903Z,100.00
2022-08-23T07:29:58.668Z,100.00
2022-08-23T07:32:25.156Z,100.00
2022-08-23T07:34:55.122Z,100.00
2022-08-23T07:37:22.486Z,100.00
2022-08-23T07:39:49.091Z,100.00
2022-08-23T07:42:23.376Z,100.00
2022-08-23T07:44:53.767Z,100.00
2022-08-23T07:47:22.558Z,100.00
2022-08-23T07:49:49.327Z,100.00
2022-08-23T07:52:15.888Z,100.00
2022-08-23T07:54:48.539Z,100.00
2022-08-23T07:57:48.530Z,100.00
2022-08-23T08:00:53.826Z,100.00
2022-08-23T08:03:39.344Z,100.00
2022-08-23T08:06:21.493Z,100.00
2022-08-23T08:08:49.234Z,100.00
2022-08-23T08:11:17.755Z,100.00
2022-08-23T08:13:46.106Z,100.00
2022-08-23T08:16:34.458Z,100.00
2022-08-23T08:19:03.712Z,100.00
2022-08-23T08:21:41.978Z,100.00
2022-08-23T08:24:20.247Z,100.00
2022-08-23T08:26:51.986Z,100.00
2022-08-23T08:29:18.643Z,100.00
2022-08-23T08:31:46.686Z,100.00
2022-08-23T08:34:13.832Z,100.00
2022-08-23T08:36:45.591Z,100.00
2022-08-23T08:39:26.959Z,100.00
2022-08-23T08:42:15.150Z,100.00
2022-08-23T08:44:49.721Z,100.00
2022-08-23T08:47:25.548Z,100.00
2022-08-23T08:50:02.858Z,100.00
2022-08-23T08:52:32.900Z,100.00
2022-08-23T08:55:08.058Z,100.00
2022-08-23T08:57:39.895Z,100.00
2022-08-23T09:00:10.507Z,100.00
2022-08-23T09:02:39.043Z,100.00
2022-08-23T09:05:13.058Z,100.00
2022-08-23T09:07:58.417Z,100.00
2022-08-23T09:10:43.353Z,100.00
2022-08-23T09:13:35.774Z,100.00
2022-08-23T09:16:15.954Z,100.00
2022-08-23T09:18:42.848Z,100.00
2022-08-23T09:21:10.046Z,100.00
2022-08-23T09:23:42.570Z,100.00
2022-08-23T09:26:30.139Z,100.00
2022-08-23T09:29:02.098Z,100.00
2022-08-23T09:31:42.731Z,100.00
2022-08-23T09:34:15.359Z,100.00
2022-08-23T09:37:05.546Z,100.00
2022-08-23T09:39:34.752Z,100.00
2022-08-23T09:42:09.267Z,100.00
2022-08-23T09:44:40.438Z,100.00
2022-08-23T09:47:09.917Z,100.00
2022-08-23T09:49:43.457Z,100.00
2022-08-23T09:52:21.964Z,100.00
2022-08-23T09:55:01.104Z,100.00
2022-08-23T09:57:29.412Z,100.00
2022-08-23T10:00:01.570Z,100.00
2022-08-23T10:02:39.586Z,100.00
2022-08-23T10:05:17.502Z,100.00
2022-08-23T10:07:52.810Z,100.00
2022-08-23T10:10:26.259Z,100.00
2022-08-23T10:12:56.946Z,100.00
2022-08-23T10:15:40.732Z,100.00
2022-08-23T10:18:11.431Z,100.00
2022-08-23T10:21:10.078Z,100.00
2022-08-23T10:23:42.740Z,100.00
2022-08-23T10:26:18.431Z,100.00
2022-08-23T10:29:03.909Z,100.00
2022-08-23T10:31:39.676Z,100.00
2022-08-23T10:34:15.637Z,100.00
2022-08-23T10:36:43.038Z,100.00
2022-08-23T10:39:16.997Z,100.00
2022-08-23T10:41:44.095Z,100.00
2022-08-23T10:44:33.182Z,100.00
2022-08-23T10:47:06.573Z,100.00
2022-08-23T10:49:38.041Z,100.00
2022-08-23T10:56:02.671Z,100.00
2022-08-23T10:58:45.281Z,100.00
2022-08-23T11:01:31.593Z,100.00
2022-08-23T11:07:15.265Z,100.00
2022-08-23T11:09:54.073Z,100.00
2022-08-23T11:12:25.049Z,100.00
2022-08-23T11:15:10.468Z,100.00
2022-08-23T11:17:55.935Z,100.00
2022-08-23T11:20:41.534Z,100.00
2022-08-23T11:23:10.820Z,100.00
2022-08-23T11:25:37.296Z,100.00
2022-08-23T11:28:21.813Z,100.00
2022-08-23T11:30:50.289Z,100.00
2022-08-23T11:33:46.568Z,100.00
2022-08-23T11:36:13.035Z,100.00
2022-08-23T11:38:49.242Z,100.00
2022-08-23T11:41:20.472Z,100.00
2022-08-23T11:43:49.436Z,100.00
2022-08-23T11:46:23.144Z,100.00
2022-08-23T16:05:46.055Z,23.52
2022-08-23T16:08:22.814Z,24.21
2022-08-23T16:10:49.469Z,23.80
2022-08-23T16:13:16.220Z,23.43
2022-08-23T16:15:43.005Z,24.15
2022-08-23T16:18:10.351Z,23.40
2022-08-23T16:20:37.059Z,23.84
2022-08-23T16:23:04.484Z,27.86
2022-08-23T16:25:31.415Z,31.81
2022-08-23T16:27:58.556Z,34.24
2022-08-23T16:30:25.464Z,35.43
2022-08-23T16:32:52.117Z,39.07
2022-08-23T16:35:18.841Z,39.28
2022-08-23T16:37:45.402Z,40.24
2022-08-23T16:40:13.011Z,42.52
2022-08-23T16:42:39.518Z,43.70
2022-08-23T16:45:07.144Z,46.42
2022-08-23T16:47:39.032Z,46.29
2022-08-23T16:50:06.601Z,47.28
2022-08-23T16:52:34.676Z,49.03
2022-08-23T16:55:05.191Z,49.71
2022-08-23T16:57:31.893Z,50.66
2022-08-23T16:59:58.508Z,50.40
2022-08-23T17:02:31.697Z,51.10
2022-08-23T17:04:58.784Z,50.71
2022-08-23T17:07:25.618Z,50.63
2022-08-23T17:09:52.224Z,51.66
2022-08-23T17:12:19.842Z,51.56
2022-08-23T17:14:48.864Z,52.59
2022-08-23T17:17:16.164Z,52.64
2022-08-23T17:19:43.976Z,52.34
2022-08-23T17:22:10.987Z,52.65
2022-08-23T17:24:37.595Z,52.98
2022-08-23T17:27:05.066Z,53.35
2022-08-23T17:29:37.328Z,53.48
2022-08-23T17:32:04.998Z,54.08
2022-08-23T17:34:31.686Z,54.45
2022-08-23T17:36:58.454Z,54.16
2022-08-23T17:39:29.068Z,54.35
2022-08-23T17:41:57.622Z,53.50
2022-08-23T17:44:25.023Z,54.83
2022-08-23T17:46:52.371Z,54.58
2022-08-23T17:49:19.402Z,55.03
2022-08-23T17:51:46.379Z,54.90
2022-08-23T17:54:16.345Z,56.02
2022-08-23T17:56:48.494Z,56.40
2022-08-23T17:59:18.938Z,56.46
2022-08-23T18:01:45.554Z,56.85
2022-08-23T18:04:12.562Z,57.82
2022-08-23T18:06:39.262Z,58.04
2022-08-23T18:09:06.845Z,57.81
2022-08-23T18:11:34.880Z,58.86
2022-08-23T18:14:01.630Z,59.34
2022-08-23T18:16:33.172Z,59.16
2022-08-23T18:19:03.554Z,59.27
2022-08-23T18:27:03.403Z,61.02
2022-08-23T18:29:34.442Z,61.42
2022-08-23T18:32:01.191Z,61.68
2022-08-23T18:34:30.127Z,61.88
2022-08-23T18:36:59.253Z,62.34
2022-08-23T18:39:38.468Z,62.90
2022-08-23T18:42:12.038Z,62.93
2022-08-23T18:44:38.769Z,62.67
2022-08-23T18:47:05.505Z,63.47
2022-08-23T18:49:33.747Z,62.74
2022-08-23T18:52:02.110Z,63.60
2022-08-23T18:54:33.105Z,63.32
2022-08-23T18:57:00.830Z,64.03
2022-08-23T18:59:27.680Z,63.62
2022-08-23T19:01:55.421Z,64.36
2022-08-23T19:04:22.389Z,64.29
2022-08-23T19:06:49.395Z,64.38
2022-08-23T19:09:21.496Z,65.26
2022-08-23T19:11:48.250Z,65.31
2022-08-23T19:14:14.961Z,65.83
2022-08-23T19:16:47.575Z,65.92
2022-08-23T19:19:15.391Z,66.54
2022-08-23T19:21:42.035Z,66.59
2022-08-23T19:24:09.492Z,66.85
2022-08-23T19:26:36.714Z,67.22
2022-08-23T19:29:09.306Z,67.26
2022-08-23T19:31:42.612Z,67.63
2022-08-23T19:34:10.388Z,67.64
2022-08-23T19:37:00.849Z,67.83
2022-08-23T19:39:24.707Z,67.91
2022-08-23T19:41:51.377Z,68.20
2022-08-23T19:44:18.399Z,67.55
2022-08-23T19:46:45.378Z,68.05
2022-08-23T19:49:13.079Z,68.60
2022-08-23T19:51:40.116Z,68.90
2022-08-23T19:54:11.292Z,69.29
2022-08-23T19:56:51.849Z,69.56
2022-08-23T19:59:24.423Z,70.13
2022-08-23T20:01:53.530Z,70.61
2022-08-23T20:04:21.972Z,70.45
2022-08-23T20:06:49.133Z,70.24
2022-08-23T20:09:17.044Z,70.82
2022-08-23T20:11:43.849Z,71.50
2022-08-23T20:14:11.210Z,70.50
2022-08-23T20:16:40.731Z,70.12
2022-08-23T20:19:10.288Z,70.68
2022-08-23T20:21:38.767Z,70.42
2022-08-23T20:24:06.945Z,71.14
2022-08-23T20:26:35.743Z,71.05
2022-08-23T20:29:04.064Z,71.53
2022-08-23T20:31:37.483Z,71.64
2022-08-23T20:34:06.810Z,72.01
2022-08-23T20:36:33.640Z,71.92
2022-08-23T20:39:01.607Z,71.90
2022-08-23T20:41:34.558Z,72.22
2022-08-23T20:44:02.203Z,72.57
2022-08-23T20:46:29.266Z,72.95
2022-08-23T20:48:59.122Z,73.42
2022-08-23T20:51:27.854Z,73.37
2022-08-23T20:53:55.953Z,73.85
2022-08-23T20:56:23.472Z,74.16
2022-08-23T20:58:50.960Z,74.43
2022-08-23T21:01:18.408Z,74.85
2022-08-23T21:03:45.633Z,75.04
2022-08-23T21:06:20.827Z,75.84
2022-08-23T21:08:50.471Z,76.23
2022-08-23T21:11:22.954Z,76.43
2022-08-23T21:13:49.755Z,76.72
2022-08-23T21:16:17.971Z,77.54
2022-08-23T21:18:44.902Z,77.20
2022-08-23T21:21:12.497Z,77.23
2022-08-23T21:23:39.414Z,77.76
2022-08-23T21:26:09.038Z,77.84
2022-08-23T21:28:36.371Z,78.36
2022-08-23T21:31:08.271Z,78.19
2022-08-23T21:33:39.829Z,78.14
2022-08-23T21:36:07.352Z,78.29
2022-08-23T21:38:34.648Z,78.36
2022-08-23T21:41:05.018Z,78.26
2022-08-23T21:43:32.870Z,78.57
2022-08-23T21:45:59.600Z,78.64
2022-08-23T21:48:26.524Z,78.86
